createdAt,value
2019-01-20T00:00:56.573Z,-3.00
2019-01-20T00:03:24.096Z,-2.90
2019-01-20T00:05:53.680Z,-2.90
2019-01-20T00:08:21.179Z,-2.90
2019-01-20T00:10:48.736Z,-2.90
2019-01-20T00:13:16.278Z,-2.90
2019-01-20T00:15:45.895Z,-3.00
2019-01-20T00:18:13.431Z,-3.00
2019-01-20T00:20:40.985Z,-3.00
2019-01-20T00:23:08.490Z,-3.00
2019-01-20T00:25:36.048Z,-3.00
2019-01-20T00:28:04.131Z,-3.00
2019-01-20T00:30:31.623Z,-3.10
2019-01-20T00:32:59.132Z,-3.10
2019-01-20T00:35:26.643Z,-3.20
2019-01-20T00:37:54.115Z,-3.20
2019-01-20T00:40:21.681Z,-3.10
2019-01-20T00:42:49.500Z,-3.00
2019-01-20T00:45:17.209Z,-3.00
2019-01-20T00:47:44.702Z,-3.10
2019-01-20T00:50:13.677Z,-3.00
2019-01-20T00:52:41.549Z,-3.00
2019-01-20T00:55:10.979Z,-3.20
2019-01-20T00:57:39.999Z,-3.30
2019-01-20T01:00:15.296Z,-3.40
2019-01-20T01:02:43.023Z,-3.30
2019-01-20T01:05:10.725Z,-3.40
2019-01-20T01:07:38.311Z,-3.40
2019-01-20T01:10:06.137Z,-3.40
2019-01-20T01:12:33.715Z,-3.30
2019-01-20T01:15:01.364Z,-3.30
2019-01-20T01:17:28.943Z,-3.30
2019-01-20T01:19:56.508Z,-3.20
2019-01-20T01:22:24.137Z,-3.30
2019-01-20T01:24:51.634Z,-3.30
2019-01-20T01:27:19.212Z,-3.40
2019-01-20T01:29:46.732Z,-3.40
2019-01-20T01:32:14.252Z,-3.50
2019-01-20T01:34:41.776Z,-3.40
2019-01-20T01:37:10.612Z,-3.40
2019-01-20T01:39:38.276Z,-3.40
2019-01-20T01:42:05.899Z,-3.50
2019-01-20T01:44:33.804Z,-3.50
2019-01-20T01:47:01.373Z,-3.40
2019-01-20T01:49:31.906Z,-3.40
2019-01-20T01:52:00.081Z,-3.40
2019-01-20T01:54:27.692Z,-3.40
2019-01-20T01:56:55.245Z,-3.40
2019-01-20T01:59:22.872Z,-3.40
2019-01-20T02:01:50.457Z,-3.30
2019-01-20T02:04:18.013Z,-3.30
2019-01-20T02:06:45.568Z,-3.40
2019-01-20T02:09:13.115Z,-3.40
2019-01-20T02:11:46.759Z,-3.40
2019-01-20T02:14:10.491Z,-3.40
2019-01-20T02:16:38.079Z,-3.40
2019-01-20T02:19:05.635Z,-3.50
2019-01-20T02:21:33.567Z,-3.50
2019-01-20T02:24:01.127Z,-3.50
2019-01-20T02:26:28.836Z,-3.50
2019-01-20T02:28:56.406Z,-3.50
2019-01-20T02:31:24.057Z,-3.50
2019-01-20T02:33:51.897Z,-3.50
2019-01-20T02:36:19.784Z,-3.60
2019-01-20T02:38:47.347Z,-3.60
2019-01-20T02:41:15.116Z,-3.60
2019-01-20T02:43:42.773Z,-3.60
2019-01-20T02:46:11.240Z,-3.50
2019-01-20T02:48:38.901Z,-3.50
2019-01-20T02:51:06.715Z,-3.60
2019-01-20T02:53:34.686Z,-3.60
2019-01-20T02:56:02.441Z,-3.70
2019-01-20T02:58:30.486Z,-3.60
2019-01-20T03:00:58.809Z,-3.60
2019-01-20T03:03:26.527Z,-3.70
2019-01-20T03:05:54.659Z,-3.70
2019-01-20T03:08:22.565Z,-3.70
2019-01-20T03:10:51.027Z,-3.60
2019-01-20T03:13:18.955Z,-3.70
2019-01-20T03:15:46.856Z,-3.70
2019-01-20T03:18:14.829Z,-3.80
2019-01-20T03:20:42.840Z,-3.70
2019-01-20T03:23:10.980Z,-3.70
2019-01-20T03:25:39.056Z,-3.60
2019-01-20T03:28:07.088Z,-3.60
2019-01-20T03:30:34.980Z,-3.50
2019-01-20T03:33:02.650Z,-3.60
2019-01-20T03:35:30.724Z,-3.60
2019-01-20T03:37:59.168Z,-3.50
2019-01-20T03:40:27.660Z,-3.60
2019-01-20T03:42:55.537Z,-3.70
2019-01-20T03:45:24.138Z,-3.70
2019-01-20T03:47:52.089Z,-3.70
2019-01-20T03:50:19.906Z,-3.70
2019-01-20T03:52:48.126Z,-3.70
2019-01-20T03:55:16.695Z,-3.70
2019-01-20T03:57:44.886Z,-3.70
2019-01-20T04:00:30.622Z,-3.70
2019-01-20T04:03:03.064Z,-3.70
2019-01-20T04:05:31.999Z,-3.70
2019-01-20T04:08:00.031Z,-3.60
2019-01-20T04:10:28.164Z,-3.60
2019-01-20T04:12:56.809Z,-3.70
2019-01-20T04:15:24.615Z,-3.70
2019-01-20T04:17:52.457Z,-3.70
2019-01-20T04:20:20.374Z,-3.60
2019-01-20T04:22:48.150Z,-3.60
2019-01-20T04:25:17.343Z,-3.60
2019-01-20T04:27:45.437Z,-3.70
2019-01-20T04:30:15.932Z,-3.70
2019-01-20T04:32:43.885Z,-3.60
2019-01-20T04:35:11.841Z,-3.60
2019-01-20T04:37:39.616Z,-3.70
2019-01-20T04:40:10.314Z,-3.70
2019-01-20T04:42:38.200Z,-3.70
2019-01-20T04:45:08.009Z,-3.70
2019-01-20T04:47:36.515Z,-3.70
2019-01-20T04:50:06.081Z,-3.70
2019-01-20T04:52:33.687Z,-3.70
2019-01-20T04:55:02.117Z,-3.70
2019-01-20T04:57:31.043Z,-3.70
2019-01-20T04:59:58.828Z,-3.80
2019-01-20T05:02:27.059Z,-3.80
2019-01-20T05:04:54.696Z,-3.80
2019-01-20T05:07:22.533Z,-3.70
2019-01-20T05:09:50.621Z,-3.70
2019-01-20T05:12:18.651Z,-3.60
2019-01-20T05:14:46.792Z,-3.60
2019-01-20T05:17:14.377Z,-3.60
2019-01-20T05:19:42.057Z,-3.70
2019-01-20T05:22:09.921Z,-3.80
2019-01-20T05:24:37.874Z,-3.80
2019-01-20T05:27:05.875Z,-3.80
2019-01-20T05:29:33.808Z,-3.90
2019-01-20T05:32:01.645Z,-3.90
2019-01-20T05:34:46.197Z,-3.90
2019-01-20T05:37:13.965Z,-4.10
2019-01-20T05:39:41.640Z,-4.20
2019-01-20T05:42:09.545Z,-4.20
2019-01-20T05:44:37.171Z,-4.10
2019-01-20T05:47:04.732Z,-4.20
2019-01-20T05:49:32.276Z,-4.30
2019-01-20T05:51:59.784Z,-4.40
2019-01-20T05:54:27.489Z,-4.40
2019-01-20T05:56:55.331Z,-4.30
2019-01-20T05:59:23.484Z,-4.30
2019-01-20T06:01:51.368Z,-4.30
2019-01-20T06:04:18.933Z,-4.20
2019-01-20T06:06:46.531Z,-4.10
2019-01-20T06:09:14.370Z,-4.00
2019-01-20T06:11:41.943Z,-3.80
2019-01-20T06:14:09.495Z,-3.90
2019-01-20T06:16:40.210Z,-3.90
2019-01-20T06:19:07.945Z,-3.70
2019-01-20T06:21:35.539Z,-3.70
2019-01-20T06:24:03.198Z,-3.70
2019-01-20T06:26:31.039Z,-3.70
2019-01-20T06:28:58.699Z,-3.70
2019-01-20T06:31:26.589Z,-3.60
2019-01-20T06:33:54.316Z,-3.60
2019-01-20T06:36:21.993Z,-3.60
2019-01-20T06:38:49.728Z,-3.70
2019-01-20T06:41:17.600Z,-3.60
2019-01-20T06:43:45.212Z,-3.60
2019-01-20T06:46:12.667Z,-3.60
2019-01-20T06:48:43.220Z,-3.70
2019-01-20T06:51:10.875Z,-3.60
2019-01-20T06:53:38.398Z,-3.50
2019-01-20T06:56:06.022Z,-3.40
2019-01-20T06:58:33.476Z,-3.30
2019-01-20T07:01:01.028Z,-3.30
2019-01-20T07:03:28.908Z,-3.50
2019-01-20T07:05:56.652Z,-3.40
2019-01-20T07:08:24.278Z,-3.50
2019-01-20T07:10:51.895Z,-3.70
2019-01-20T07:13:19.422Z,-3.80
2019-01-20T07:15:46.990Z,-3.70
2019-01-20T07:18:14.517Z,-3.70
2019-01-20T07:20:42.436Z,-3.60
2019-01-20T07:23:09.964Z,-3.60
2019-01-20T07:25:37.553Z,-3.50
2019-01-20T07:28:05.156Z,-3.50
2019-01-20T07:30:32.744Z,-3.30
2019-01-20T07:33:00.341Z,-3.30
2019-01-20T07:35:27.943Z,-3.20
2019-01-20T07:37:56.007Z,-3.10
2019-01-20T07:40:25.539Z,-3.20
2019-01-20T07:42:53.398Z,-3.10
2019-01-20T07:45:20.984Z,-3.10
2019-01-20T07:47:48.576Z,-3.10
2019-01-20T07:50:24.268Z,-3.20
2019-01-20T07:52:52.082Z,-3.20
2019-01-20T07:55:19.752Z,-3.30
2019-01-20T07:57:47.446Z,-3.10
2019-01-20T08:00:17.274Z,-3.00
2019-01-20T08:02:45.564Z,-3.10
2019-01-20T08:05:13.483Z,-3.30
2019-01-20T08:07:40.951Z,-3.20
2019-01-20T08:10:12.083Z,-2.70
2019-01-20T08:12:39.619Z,-2.20
2019-01-20T08:15:08.112Z,-2.10
2019-01-20T08:17:35.620Z,-2.20
2019-01-20T08:20:03.768Z,-2.10
2019-01-20T08:22:31.260Z,-2.10
2019-01-20T08:24:58.803Z,-2.10
2019-01-20T08:27:27.436Z,-2.20
2019-01-20T08:29:54.933Z,-2.30
2019-01-20T08:32:22.864Z,-1.90
2019-01-20T08:34:50.348Z,-2.10
2019-01-20T08:37:17.907Z,-2.20
2019-01-20T08:39:45.507Z,-2.30
2019-01-20T08:42:13.096Z,-2.50
2019-01-20T08:44:42.771Z,-2.40
2019-01-20T08:47:40.576Z,-2.60
2019-01-20T08:50:10.884Z,-2.60
2019-01-20T08:52:38.375Z,-2.80
2019-01-20T08:55:07.487Z,-2.60
2019-01-20T08:57:35.259Z,-2.50
2019-01-20T09:00:03.836Z,-2.30
2019-01-20T09:02:31.464Z,-2.30
2019-01-20T09:04:58.959Z,-2.40
2019-01-20T09:07:26.477Z,-2.20
2019-01-20T09:09:53.928Z,-2.10
2019-01-20T09:12:21.508Z,-1.80
2019-01-20T09:14:48.987Z,-1.90
2019-01-20T09:17:16.831Z,-1.90
2019-01-20T09:19:44.364Z,-2.00
2019-01-20T09:22:11.922Z,-2.00
2019-01-20T09:24:39.491Z,-1.90
2019-01-20T09:27:07.001Z,-1.90
2019-01-20T09:29:34.539Z,-2.00
2019-01-20T09:32:02.070Z,-2.00
2019-01-20T09:34:29.789Z,-1.90
2019-01-20T09:36:57.344Z,-1.80
2019-01-20T09:39:24.859Z,-1.60
2019-01-20T09:41:54.364Z,-1.70
2019-01-20T09:44:29.584Z,-1.80
2019-01-20T09:46:57.193Z,-1.80
2019-01-20T09:49:25.359Z,-1.60
2019-01-20T09:51:52.864Z,-1.50
2019-01-20T09:54:20.425Z,-1.60
2019-01-20T09:56:49.026Z,-1.50
2019-01-20T09:59:17.643Z,-1.50
2019-01-20T10:01:46.460Z,-1.40
2019-01-20T10:04:15.181Z,-1.30
2019-01-20T10:06:42.712Z,-1.20
2019-01-20T10:09:10.237Z,-1.20
2019-01-20T10:11:37.687Z,-1.20
2019-01-20T10:14:05.265Z,-1.00
2019-01-20T10:16:32.755Z,-1.20
2019-01-20T10:19:00.313Z,-1.20
2019-01-20T10:21:27.786Z,-1.10
2019-01-20T10:23:55.349Z,-0.90
2019-01-20T10:26:22.827Z,-0.80
2019-01-20T10:28:50.383Z,-0.60
2019-01-20T10:31:17.926Z,-0.70
2019-01-20T10:33:45.420Z,-0.70
2019-01-20T10:36:12.891Z,-0.50
2019-01-20T10:38:40.386Z,-0.40
2019-01-20T10:41:08.541Z,-0.10
2019-01-20T10:43:39.446Z,-0.20
2019-01-20T10:46:06.960Z,-0.40
2019-01-20T10:48:34.563Z,-0.30
2019-01-20T10:51:02.291Z,-0.30
2019-01-20T10:53:29.987Z,-0.40
2019-01-20T10:55:57.824Z,-0.40
2019-01-20T10:58:25.759Z,-0.40
2019-01-20T11:00:53.977Z,-0.40
2019-01-20T11:03:21.538Z,-0.30
2019-01-20T11:05:49.127Z,-0.20
2019-01-20T11:08:16.685Z,0.00
2019-01-20T11:10:44.313Z,0.10
2019-01-20T11:13:12.066Z,0.30
2019-01-20T11:15:39.599Z,0.40
2019-01-20T11:18:07.256Z,0.30
2019-01-20T11:20:35.336Z,0.30
2019-01-20T11:23:02.925Z,0.50
2019-01-20T11:25:33.818Z,0.70
2019-01-20T11:28:01.564Z,0.70
2019-01-20T11:30:29.412Z,0.60
2019-01-20T11:32:57.024Z,0.40
2019-01-20T11:35:24.519Z,0.20
2019-01-20T11:37:52.242Z,0.30
2019-01-20T11:40:19.932Z,0.30
2019-01-20T11:42:47.733Z,0.40
2019-01-20T11:45:26.366Z,0.40
2019-01-20T11:47:53.927Z,0.30
2019-01-20T11:50:22.088Z,0.40
2019-01-20T11:52:49.630Z,0.40
2019-01-20T11:55:19.100Z,0.40
2019-01-20T11:57:47.094Z,0.50
2019-01-20T12:00:20.055Z,0.60
2019-01-20T12:02:48.203Z,0.70
2019-01-20T12:05:16.681Z,0.70
2019-01-20T12:07:44.496Z,0.60
2019-01-20T12:10:12.800Z,0.60
2019-01-20T12:12:40.829Z,0.70
2019-01-20T12:15:10.209Z,0.80
2019-01-20T12:17:38.432Z,0.90
2019-01-20T12:20:07.616Z,1.10
2019-01-20T12:22:35.462Z,1.20
2019-01-20T12:25:04.149Z,1.40
2019-01-20T12:27:31.793Z,1.50
2019-01-20T12:29:59.533Z,1.60
2019-01-20T12:32:27.123Z,1.70
2019-01-20T12:34:55.095Z,1.60
2019-01-20T12:37:23.083Z,1.60
2019-01-20T12:39:50.857Z,1.70
2019-01-20T12:42:18.815Z,1.70
2019-01-20T12:44:46.721Z,1.80
2019-01-20T12:47:14.537Z,2.00
2019-01-20T12:49:42.152Z,2.00
2019-01-20T12:52:17.613Z,1.80
2019-01-20T12:54:45.311Z,1.80
2019-01-20T12:57:13.013Z,1.90
2019-01-20T12:59:40.752Z,1.80
2019-01-20T13:02:08.688Z,1.60
2019-01-20T13:04:36.349Z,1.70
2019-01-20T13:07:04.137Z,1.50
2019-01-20T13:09:31.809Z,1.80
2019-01-20T13:11:59.608Z,1.80
2019-01-20T13:14:27.989Z,1.90
2019-01-20T13:16:56.005Z,1.70
2019-01-20T13:19:23.822Z,1.90
2019-01-20T13:21:51.373Z,2.00
2019-01-20T13:24:19.080Z,2.10
2019-01-20T13:26:46.694Z,1.90
2019-01-20T13:29:15.541Z,1.90
2019-01-20T13:31:43.196Z,1.90
2019-01-20T13:34:11.224Z,1.80
2019-01-20T13:36:39.027Z,1.70
2019-01-20T13:39:10.258Z,1.70
2019-01-20T13:41:37.892Z,1.80
2019-01-20T13:44:05.868Z,2.00
2019-01-20T13:46:33.958Z,2.00
2019-01-20T13:49:01.713Z,1.90
2019-01-20T13:51:29.340Z,2.00
2019-01-20T13:53:57.147Z,1.90
2019-01-20T13:56:24.794Z,1.90
2019-01-20T13:58:52.433Z,1.90
2019-01-20T14:01:20.438Z,1.90
2019-01-20T14:03:48.521Z,1.80
2019-01-20T14:06:16.680Z,1.80
2019-01-20T14:08:44.634Z,1.80
2019-01-20T14:11:13.197Z,1.90
2019-01-20T14:13:41.149Z,2.10
2019-01-20T14:16:08.911Z,2.30
2019-01-20T14:18:36.393Z,2.30
2019-01-20T14:21:04.721Z,2.40
2019-01-20T14:23:32.307Z,2.40
2019-01-20T14:25:59.905Z,2.40
2019-01-20T14:28:27.541Z,2.50
2019-01-20T14:30:55.371Z,2.60
2019-01-20T14:33:23.469Z,2.60
2019-01-20T14:35:51.268Z,2.80
2019-01-20T14:38:19.350Z,2.90
2019-01-20T14:40:47.291Z,2.80
2019-01-20T14:43:15.069Z,2.50
2019-01-20T14:45:42.954Z,2.50
2019-01-20T14:48:10.801Z,2.50
2019-01-20T14:50:38.743Z,2.60
2019-01-20T14:53:06.322Z,2.60
2019-01-20T14:55:35.989Z,2.70
2019-01-20T14:58:21.558Z,2.60
2019-01-20T15:00:49.432Z,2.50
2019-01-20T15:03:17.023Z,2.50
2019-01-20T15:09:51.368Z,2.60
2019-01-20T15:12:18.885Z,2.40
2019-01-20T15:14:46.437Z,2.40
2019-01-20T15:17:13.985Z,2.40
2019-01-20T15:19:41.691Z,2.30
2019-01-20T15:22:10.414Z,2.30
2019-01-20T15:24:37.996Z,2.40
2019-01-20T15:27:05.720Z,2.50
2019-01-20T15:29:33.263Z,2.30
2019-01-20T15:32:00.896Z,2.30
2019-01-20T15:34:28.614Z,2.50
2019-01-20T15:36:56.224Z,2.60
2019-01-20T15:39:23.768Z,2.70
2019-01-20T15:41:51.486Z,2.60
2019-01-20T15:44:25.399Z,2.50
2019-01-20T15:46:52.863Z,2.30
2019-01-20T15:49:20.454Z,2.20
2019-01-20T15:51:48.095Z,2.20
2019-01-20T15:54:15.560Z,2.10
2019-01-20T15:56:43.110Z,2.30
2019-01-20T15:59:12.309Z,2.50
2019-01-20T16:01:39.810Z,2.70
2019-01-20T16:04:07.376Z,2.70
2019-01-20T16:06:34.955Z,2.90
2019-01-20T16:09:03.402Z,2.60
2019-01-20T16:11:31.361Z,2.60
2019-01-20T16:13:59.008Z,2.40
2019-01-20T16:16:26.692Z,2.40
2019-01-20T16:18:54.211Z,2.50
2019-01-20T16:21:21.791Z,2.50
2019-01-20T16:23:49.789Z,2.60
2019-01-20T16:26:17.947Z,2.80
2019-01-20T16:28:46.293Z,2.60
2019-01-20T16:31:14.143Z,2.50
2019-01-20T16:33:52.221Z,2.50
2019-01-20T16:36:20.486Z,2.60
2019-01-20T16:38:48.801Z,2.60
2019-01-20T16:41:35.436Z,2.40
2019-01-20T16:44:13.399Z,2.40
2019-01-20T16:46:41.356Z,2.50
2019-01-20T16:49:11.778Z,2.60
2019-01-20T16:52:08.266Z,2.60
2019-01-20T16:54:37.037Z,2.50
2019-01-20T16:57:10.624Z,2.50
2019-01-20T16:59:48.136Z,2.50
2019-01-20T17:02:16.067Z,2.40
2019-01-20T17:04:44.186Z,2.50
2019-01-20T17:07:11.671Z,2.50
2019-01-20T17:09:40.279Z,2.60
2019-01-20T17:12:07.840Z,2.40
2019-01-20T17:14:35.324Z,2.40
2019-01-20T17:17:02.903Z,2.40
2019-01-20T17:19:30.508Z,2.40
2019-01-20T17:21:58.186Z,2.50
2019-01-20T17:24:25.763Z,2.40
2019-01-20T17:26:53.378Z,2.40
2019-01-20T17:29:44.579Z,2.40
2019-01-20T17:39:47.831Z,2.30
2019-01-20T17:42:29.785Z,2.20
2019-01-20T17:45:46.870Z,2.40
2019-01-20T17:52:47.976Z,2.30
2019-01-20T17:59:09.410Z,2.60
2019-01-20T18:01:45.810Z,2.60
2019-01-20T18:07:38.654Z,2.30
2019-01-20T18:10:07.817Z,2.30
2019-01-20T18:13:45.970Z,2.50
2019-01-20T18:16:34.794Z,2.60
2019-01-20T18:19:02.727Z,2.60
2019-01-20T18:22:07.925Z,2.60
2019-01-20T18:24:40.158Z,2.60
2019-01-20T18:27:33.508Z,2.60
2019-01-20T18:30:25.923Z,2.60
2019-01-20T18:32:59.629Z,2.50
2019-01-20T18:35:34.043Z,2.40
2019-01-20T18:38:16.440Z,2.50
2019-01-20T18:40:51.007Z,2.50
2019-01-20T18:43:18.928Z,2.60
2019-01-20T18:45:46.553Z,2.50
2019-01-20T18:48:14.588Z,2.60
2019-01-20T18:50:42.676Z,2.50
2019-01-20T18:53:31.169Z,2.60
2019-01-20T18:56:43.047Z,2.60
2019-01-20T18:59:28.084Z,2.40
2019-01-20T19:01:58.887Z,2.30
2019-01-20T19:04:27.872Z,2.30
2019-01-20T19:07:58.473Z,2.20
2019-01-20T19:10:26.901Z,2.10
2019-01-20T19:13:01.472Z,2.00
2019-01-20T19:15:31.494Z,1.80
2019-01-20T19:18:04.679Z,1.80
2019-01-20T19:20:42.135Z,1.80
2019-01-20T19:23:23.501Z,1.80
2019-01-20T19:26:16.203Z,1.70
2019-01-20T19:28:51.497Z,1.80
2019-01-20T19:31:36.435Z,1.60
2019-01-20T19:34:33.114Z,1.60
2019-01-20T19:37:15.112Z,1.70
2019-01-20T19:40:06.833Z,1.80
2019-01-20T19:42:54.942Z,1.60
2019-01-20T19:45:38.977Z,1.60
2019-01-20T19:48:20.498Z,1.70
2019-01-20T19:51:15.621Z,1.80
2019-01-20T19:53:52.925Z,1.80
2019-01-20T19:56:26.284Z,1.70
2019-01-20T19:58:55.237Z,1.70
2019-01-20T20:01:34.805Z,1.70
2019-01-20T20:04:18.166Z,1.70
2019-01-20T20:06:46.489Z,1.60
2019-01-20T20:09:35.607Z,1.60
2019-01-20T20:12:23.463Z,1.60
2019-01-20T20:15:21.536Z,1.70
2019-01-20T20:17:57.266Z,1.60
2019-01-20T20:20:54.189Z,1.60
2019-01-20T20:27:32.555Z,1.70
2019-01-20T20:30:07.953Z,1.80
2019-01-20T20:32:46.882Z,1.70
2019-01-20T20:38:38.709Z,1.40
2019-01-20T20:44:09.791Z,1.50
2019-01-20T21:04:56.757Z,1.50
2019-01-20T21:11:28.702Z,1.30
2019-01-20T21:14:43.371Z,1.10
2019-01-20T21:34:49.269Z,1.30
2019-01-20T21:44:57.249Z,1.40
2019-01-20T21:48:00.088Z,1.30
2019-01-20T21:50:40.904Z,1.10
2019-01-20T21:53:20.383Z,1.20
2019-01-20T21:59:21.825Z,1.10
2019-01-20T22:09:46.275Z,1.00
2019-01-20T22:12:36.332Z,1.00
2019-01-20T22:15:12.853Z,1.10
2019-01-20T22:21:09.185Z,0.90
2019-01-20T22:26:55.060Z,0.90
2019-01-20T22:33:48.816Z,0.90
2019-01-20T22:36:29.030Z,1.00
2019-01-20T22:40:15.621Z,0.90
2019-01-20T22:47:19.118Z,1.00
2019-01-20T22:57:01.869Z,1.10
2019-01-20T22:59:45.697Z,1.10
2019-01-20T23:02:55.265Z,0.90
2019-01-20T23:09:07.213Z,0.80
2019-01-20T23:11:45.222Z,0.90
2019-01-20T23:14:25.633Z,1.00
2019-01-20T23:16:55.528Z,0.90
2019-01-20T23:19:25.030Z,0.70
2019-01-20T23:21:55.575Z,0.80
2019-01-20T23:24:23.600Z,0.70
2019-01-20T23:26:56.072Z,0.70
2019-01-20T23:29:37.066Z,0.70
2019-01-20T23:32:09.142Z,0.80
2019-01-20T23:34:37.866Z,0.90
2019-01-20T23:37:11.421Z,0.90
2019-01-20T23:39:44.051Z,0.70
2019-01-20T23:44:56.374Z,0.70
2019-01-20T23:47:47.881Z,1.00
2019-01-20T23:50:21.319Z,0.80
2019-01-20T23:53:20.881Z,0.90
